sensor_id;sensor_type;location;lat;lon;timestamp;temperature;humidity
68439;SHT31;55421;51.600;5.718;2022-11-14T00:01:05;7.22;73.45
68439;SHT31;55421;51.600;5.718;2022-11-14T00:03:34;7.19;73.49
68439;SHT31;55421;51.600;5.718;2022-11-14T00:06:03;7.15;73.58
68439;SHT31;55421;51.600;5.718;2022-11-14T00:08:32;7.12;73.64
68439;SHT31;55421;51.600;5.718;2022-11-14T00:10:59;7.08;73.70
68439;SHT31;55421;51.600;5.718;2022-11-14T00:13:26;7.04;73.76
68439;SHT31;55421;51.600;5.718;2022-11-14T00:15:52;7.00;73.79
68439;SHT31;55421;51.600;5.718;2022-11-14T00:18:19;6.97;73.80
68439;SHT31;55421;51.600;5.718;2022-11-14T00:20:47;6.96;73.80
68439;SHT31;55421;51.600;5.718;2022-11-14T00:23:18;6.95;73.81
68439;SHT31;55421;51.600;5.718;2022-11-14T00:25:46;6.93;73.89
68439;SHT31;55421;51.600;5.718;2022-11-14T00:28:14;6.89;73.90
68439;SHT31;55421;51.600;5.718;2022-11-14T00:30:40;6.86;73.91
68439;SHT31;55421;51.600;5.718;2022-11-14T00:33:12;6.80;73.97
68439;SHT31;55421;51.600;5.718;2022-11-14T00:35:38;6.77;74.03
68439;SHT31;55421;51.600;5.718;2022-11-14T00:38:05;6.76;74.12
68439;SHT31;55421;51.600;5.718;2022-11-14T00:40:31;6.74;74.17
68439;SHT31;55421;51.600;5.718;2022-11-14T00:42:58;6.73;74.22
68439;SHT31;55421;51.600;5.718;2022-11-14T00:45:24;6.70;74.30
68439;SHT31;55421;51.600;5.718;2022-11-14T00:47:51;6.67;74.36
68439;SHT31;55421;51.600;5.718;2022-11-14T00:50:17;6.69;74.41
68439;SHT31;55421;51.600;5.718;2022-11-14T00:52:43;6.70;74.42
68439;SHT31;55421;51.600;5.718;2022-11-14T00:55:10;6.70;74.40
68439;SHT31;55421;51.600;5.718;2022-11-14T00:57:36;6.70;74.40
68439;SHT31;55421;51.600;5.718;2022-11-14T01:00:03;6.68;74.40
68439;SHT31;55421;51.600;5.718;2022-11-14T01:02:32;6.66;74.39
68439;SHT31;55421;51.600;5.718;2022-11-14T01:04:58;6.62;74.40
68439;SHT31;55421;51.600;5.718;2022-11-14T01:07:25;6.56;74.40
68439;SHT31;55421;51.600;5.718;2022-11-14T01:09:52;6.54;74.45
68439;SHT31;55421;51.600;5.718;2022-11-14T01:12:18;6.52;74.56
68439;SHT31;55421;51.600;5.718;2022-11-14T01:14:45;6.50;74.64
68439;SHT31;55421;51.600;5.718;2022-11-14T01:17:12;6.49;74.70
68439;SHT31;55421;51.600;5.718;2022-11-14T01:19:39;6.45;74.70
68439;SHT31;55421;51.600;5.718;2022-11-14T01:22:05;6.41;74.70
68439;SHT31;55421;51.600;5.718;2022-11-14T01:24:32;6.35;74.79
68439;SHT31;55421;51.600;5.718;2022-11-14T01:26:59;6.34;74.93
68439;SHT31;55421;51.600;5.718;2022-11-14T01:29:27;6.32;75.04
68439;SHT31;55421;51.600;5.718;2022-11-14T01:31:54;6.31;75.16
68439;SHT31;55421;51.600;5.718;2022-11-14T01:34:21;6.28;75.20
68439;SHT31;55421;51.600;5.718;2022-11-14T01:36:48;6.24;75.26
68439;SHT31;55421;51.600;5.718;2022-11-14T01:39:15;6.19;75.36
68439;SHT31;55421;51.600;5.718;2022-11-14T01:41:41;6.17;75.40
68439;SHT31;55421;51.600;5.718;2022-11-14T01:44:12;6.15;75.43
68439;SHT31;55421;51.600;5.718;2022-11-14T01:46:41;6.12;75.57
68439;SHT31;55421;51.600;5.718;2022-11-14T01:49:19;6.09;75.69
68439;SHT31;55421;51.600;5.718;2022-11-14T01:52:00;6.05;75.78
68439;SHT31;55421;51.600;5.718;2022-11-14T01:54:33;6.01;75.87
68439;SHT31;55421;51.600;5.718;2022-11-14T01:57:14;5.99;76.00
68439;SHT31;55421;51.600;5.718;2022-11-14T01:59:49;5.97;76.11
68439;SHT31;55421;51.600;5.718;2022-11-14T02:02:21;5.96;76.23
68439;SHT31;55421;51.600;5.718;2022-11-14T02:04:52;5.95;76.33
68439;SHT31;55421;51.600;5.718;2022-11-14T02:07:33;5.95;76.43
68439;SHT31;55421;51.600;5.718;2022-11-14T02:10:08;5.94;76.42
68439;SHT31;55421;51.600;5.718;2022-11-14T02:12:46;5.97;76.44
68439;SHT31;55421;51.600;5.718;2022-11-14T02:15:15;5.96;76.50
68439;SHT31;55421;51.600;5.718;2022-11-14T02:17:42;5.94;76.51
68439;SHT31;55421;51.600;5.718;2022-11-14T02:22:39;5.87;76.68
68439;SHT31;55421;51.600;5.718;2022-11-14T02:25:08;5.87;76.82
68439;SHT31;55421;51.600;5.718;2022-11-14T02:27:40;5.86;76.90
68439;SHT31;55421;51.600;5.718;2022-11-14T02:30:09;5.84;77.00
68439;SHT31;55421;51.600;5.718;2022-11-14T02:32:43;5.80;77.09
68439;SHT31;55421;51.600;5.718;2022-11-14T02:35:10;5.78;77.10
68439;SHT31;55421;51.600;5.718;2022-11-14T02:37:37;5.78;77.11
68439;SHT31;55421;51.600;5.718;2022-11-14T02:40:05;5.78;77.16
68439;SHT31;55421;51.600;5.718;2022-11-14T02:42:32;5.78;77.24
68439;SHT31;55421;51.600;5.718;2022-11-14T02:44:59;5.78;77.29
68439;SHT31;55421;51.600;5.718;2022-11-14T02:47:26;5.77;77.30
68439;SHT31;55421;51.600;5.718;2022-11-14T02:49:52;5.74;77.29
68439;SHT31;55421;51.600;5.718;2022-11-14T02:52:19;5.74;77.30
68439;SHT31;55421;51.600;5.718;2022-11-14T02:54:46;5.74;77.30
68439;SHT31;55421;51.600;5.718;2022-11-14T02:57:12;5.74;77.31
68439;SHT31;55421;51.600;5.718;2022-11-14T02:59:39;5.73;77.30
68439;SHT31;55421;51.600;5.718;2022-11-14T03:02:05;5.71;77.30
68439;SHT31;55421;51.600;5.718;2022-11-14T03:04:32;5.68;77.34
68439;SHT31;55421;51.600;5.718;2022-11-14T03:06:58;5.65;77.32
68439;SHT31;55421;51.600;5.718;2022-11-14T03:09:25;5.65;77.30
68439;SHT31;55421;51.600;5.718;2022-11-14T03:11:51;5.67;77.39
68439;SHT31;55421;51.600;5.718;2022-11-14T03:14:17;5.68;77.34
68439;SHT31;55421;51.600;5.718;2022-11-14T03:16:44;5.68;77.37
68439;SHT31;55421;51.600;5.718;2022-11-14T03:19:10;5.66;77.34
68439;SHT31;55421;51.600;5.718;2022-11-14T03:21:37;5.61;77.39
68439;SHT31;55421;51.600;5.718;2022-11-14T03:24:03;5.58;77.50
68439;SHT31;55421;51.600;5.718;2022-11-14T03:26:30;5.55;77.56
68439;SHT31;55421;51.600;5.718;2022-11-14T03:28:57;5.54;77.60
68439;SHT31;55421;51.600;5.718;2022-11-14T03:31:23;5.53;77.58
68439;SHT31;55421;51.600;5.718;2022-11-14T03:33:50;5.55;77.67
68439;SHT31;55421;51.600;5.718;2022-11-14T03:36:16;5.59;77.70
68439;SHT31;55421;51.600;5.718;2022-11-14T03:38:43;5.62;77.71
68439;SHT31;55421;51.600;5.718;2022-11-14T03:41:10;5.62;77.70
68439;SHT31;55421;51.600;5.718;2022-11-14T03:43:36;5.59;77.70
68439;SHT31;55421;51.600;5.718;2022-11-14T03:46:03;5.55;77.71
68439;SHT31;55421;51.600;5.718;2022-11-14T03:48:30;5.52;77.72
68439;SHT31;55421;51.600;5.718;2022-11-14T03:50:56;5.50;77.70
68439;SHT31;55421;51.600;5.718;2022-11-14T03:53:23;5.50;77.71
68439;SHT31;55421;51.600;5.718;2022-11-14T03:55:50;5.48;77.71
68439;SHT31;55421;51.600;5.718;2022-11-14T03:58:17;5.46;77.71
68439;SHT31;55421;51.600;5.718;2022-11-14T04:00:44;5.44;77.79
68439;SHT31;55421;51.600;5.718;2022-11-14T04:03:11;5.40;77.80
68439;SHT31;55421;51.600;5.718;2022-11-14T04:05:38;5.36;77.82
68439;SHT31;55421;51.600;5.718;2022-11-14T04:08:05;5.36;77.82
68439;SHT31;55421;51.600;5.718;2022-11-14T04:10:32;5.35;77.90
68439;SHT31;55421;51.600;5.718;2022-11-14T04:12:59;5.33;77.93
68439;SHT31;55421;51.600;5.718;2022-11-14T04:15:25;5.33;78.00
68439;SHT31;55421;51.600;5.718;2022-11-14T04:17:52;5.31;77.96
68439;SHT31;55421;51.600;5.718;2022-11-14T04:20:18;5.28;77.91
68439;SHT31;55421;51.600;5.718;2022-11-14T04:22:45;5.26;77.92
68439;SHT31;55421;51.600;5.718;2022-11-14T04:25:11;5.26;77.97
68439;SHT31;55421;51.600;5.718;2022-11-14T04:27:38;5.24;78.01
68439;SHT31;55421;51.600;5.718;2022-11-14T04:30:05;5.20;78.04
68439;SHT31;55421;51.600;5.718;2022-11-14T04:32:32;5.15;78.10
68439;SHT31;55421;51.600;5.718;2022-11-14T04:34:59;5.09;78.10
68439;SHT31;55421;51.600;5.718;2022-11-14T04:37:25;5.04;78.10
68439;SHT31;55421;51.600;5.718;2022-11-14T04:39:52;5.02;78.12
68439;SHT31;55421;51.600;5.718;2022-11-14T04:42:19;4.99;78.21
68439;SHT31;55421;51.600;5.718;2022-11-14T04:44:46;4.96;78.30
68439;SHT31;55421;51.600;5.718;2022-11-14T04:47:12;4.92;78.31
68439;SHT31;55421;51.600;5.718;2022-11-14T04:49:39;4.88;78.35
68439;SHT31;55421;51.600;5.718;2022-11-14T04:52:05;4.86;78.40
68439;SHT31;55421;51.600;5.718;2022-11-14T04:54:31;4.84;78.41
68439;SHT31;55421;51.600;5.718;2022-11-14T04:56:58;4.81;78.40
68439;SHT31;55421;51.600;5.718;2022-11-14T04:59:25;4.79;78.35
68439;SHT31;55421;51.600;5.718;2022-11-14T05:01:51;4.75;78.33
68439;SHT31;55421;51.600;5.718;2022-11-14T05:04:18;4.72;78.31
68439;SHT31;55421;51.600;5.718;2022-11-14T05:06:44;4.68;78.35
68439;SHT31;55421;51.600;5.718;2022-11-14T05:09:11;4.67;78.30
68439;SHT31;55421;51.600;5.718;2022-11-14T05:11:38;4.67;78.36
68439;SHT31;55421;51.600;5.718;2022-11-14T05:14:04;4.67;78.32
68439;SHT31;55421;51.600;5.718;2022-11-14T05:16:31;4.67;78.39
68439;SHT31;55421;51.600;5.718;2022-11-14T05:18:57;4.65;78.40
68439;SHT31;55421;51.600;5.718;2022-11-14T05:21:24;4.63;78.48
68439;SHT31;55421;51.600;5.718;2022-11-14T05:23:50;4.62;78.59
68439;SHT31;55421;51.600;5.718;2022-11-14T05:26:17;4.63;78.62
68439;SHT31;55421;51.600;5.718;2022-11-14T05:28:44;4.64;78.72
68439;SHT31;55421;51.600;5.718;2022-11-14T05:31:12;4.66;78.81
68439;SHT31;55421;51.600;5.718;2022-11-14T05:33:43;4.66;78.87
68439;SHT31;55421;51.600;5.718;2022-11-14T05:36:13;4.65;78.90
68439;SHT31;55421;51.600;5.718;2022-11-14T05:38:42;4.63;78.90
68439;SHT31;55421;51.600;5.718;2022-11-14T05:41:09;4.61;78.90
68439;SHT31;55421;51.600;5.718;2022-11-14T05:43:39;4.59;78.90
68439;SHT31;55421;51.600;5.718;2022-11-14T05:46:08;4.55;78.89
68439;SHT31;55421;51.600;5.718;2022-11-14T05:48:37;4.52;78.98
68439;SHT31;55421;51.600;5.718;2022-11-14T05:51:05;4.48;79.08
68439;SHT31;55421;51.600;5.718;2022-11-14T05:53:34;4.45;79.15
68439;SHT31;55421;51.600;5.718;2022-11-14T05:56:02;4.44;79.20
68439;SHT31;55421;51.600;5.718;2022-11-14T05:58:32;4.43;79.21
68439;SHT31;55421;51.600;5.718;2022-11-14T06:01:00;4.42;79.28
68439;SHT31;55421;51.600;5.718;2022-11-14T06:03:32;4.39;79.40
68439;SHT31;55421;51.600;5.718;2022-11-14T06:06:01;4.37;79.47
68439;SHT31;55421;51.600;5.718;2022-11-14T06:08:30;4.35;79.53
68439;SHT31;55421;51.600;5.718;2022-11-14T06:11:02;4.36;79.59
68439;SHT31;55421;51.600;5.718;2022-11-14T06:13:34;4.35;79.60
68439;SHT31;55421;51.600;5.718;2022-11-14T06:16:03;4.34;79.60
68439;SHT31;55421;51.600;5.718;2022-11-14T06:18:34;4.31;79.59
68439;SHT31;55421;51.600;5.718;2022-11-14T06:21:23;4.28;79.63
68439;SHT31;55421;51.600;5.718;2022-11-14T06:23:50;4.28;79.69
68439;SHT31;55421;51.600;5.718;2022-11-14T06:26:19;4.30;79.79
68439;SHT31;55421;51.600;5.718;2022-11-14T06:28:49;4.31;79.78
68439;SHT31;55421;51.600;5.718;2022-11-14T06:31:17;4.31;79.72
68439;SHT31;55421;51.600;5.718;2022-11-14T06:33:46;4.31;79.74
68439;SHT31;55421;51.600;5.718;2022-11-14T06:36:13;4.31;79.72
68439;SHT31;55421;51.600;5.718;2022-11-14T06:38:41;4.30;79.70
68439;SHT31;55421;51.600;5.718;2022-11-14T06:41:09;4.32;79.62
68439;SHT31;55421;51.600;5.718;2022-11-14T06:43:39;4.31;79.61
68439;SHT31;55421;51.600;5.718;2022-11-14T06:46:09;4.32;79.65
68439;SHT31;55421;51.600;5.718;2022-11-14T06:48:38;4.31;79.70
68439;SHT31;55421;51.600;5.718;2022-11-14T06:51:06;4.31;79.77
68439;SHT31;55421;51.600;5.718;2022-11-14T06:53:33;4.33;79.77
68439;SHT31;55421;51.600;5.718;2022-11-14T06:56:05;4.37;79.71
68439;SHT31;55421;51.600;5.718;2022-11-14T06:58:39;4.42;79.71
68439;SHT31;55421;51.600;5.718;2022-11-14T07:03:53;4.49;79.69
68439;SHT31;55421;51.600;5.718;2022-11-14T07:06:24;4.51;79.63
68439;SHT31;55421;51.600;5.718;2022-11-14T07:08:52;4.53;79.60
68439;SHT31;55421;51.600;5.718;2022-11-14T07:11:23;4.57;79.49
68439;SHT31;55421;51.600;5.718;2022-11-14T07:13:55;4.59;79.36
68439;SHT31;55421;51.600;5.718;2022-11-14T07:16:30;4.60;79.24
68439;SHT31;55421;51.600;5.718;2022-11-14T07:19:03;4.59;79.10
68439;SHT31;55421;51.600;5.718;2022-11-14T07:21:34;4.60;79.02
68439;SHT31;55421;51.600;5.718;2022-11-14T07:24:01;4.61;79.00
68439;SHT31;55421;51.600;5.718;2022-11-14T07:26:27;4.63;79.00
68439;SHT31;55421;51.600;5.718;2022-11-14T07:28:54;4.68;79.00
68439;SHT31;55421;51.600;5.718;2022-11-14T07:31:21;4.72;79.00
68439;SHT31;55421;51.600;5.718;2022-11-14T07:33:47;4.74;79.00
68439;SHT31;55421;51.600;5.718;2022-11-14T07:36:14;4.75;79.00
68439;SHT31;55421;51.600;5.718;2022-11-14T07:38:42;4.76;79.04
68439;SHT31;55421;51.600;5.718;2022-11-14T07:43:37;4.80;79.12
68439;SHT31;55421;51.600;5.718;2022-11-14T07:46:11;4.84;79.15
68439;SHT31;55421;51.600;5.718;2022-11-14T07:48:41;4.88;79.12
68439;SHT31;55421;51.600;5.718;2022-11-14T07:51:17;4.90;79.05
68439;SHT31;55421;51.600;5.718;2022-11-14T07:53:45;4.93;79.08
68439;SHT31;55421;51.600;5.718;2022-11-14T07:56:11;4.97;79.09
68439;SHT31;55421;51.600;5.718;2022-11-14T07:58:39;5.02;79.06
68439;SHT31;55421;51.600;5.718;2022-11-14T08:01:07;5.07;79.07
68439;SHT31;55421;51.600;5.718;2022-11-14T08:03:36;5.13;79.10
68439;SHT31;55421;51.600;5.718;2022-11-14T08:06:05;5.16;79.10
68439;SHT31;55421;51.600;5.718;2022-11-14T08:08:34;5.22;79.11
68439;SHT31;55421;51.600;5.718;2022-11-14T08:11:01;5.29;79.09
68439;SHT31;55421;51.600;5.718;2022-11-14T08:13:29;5.38;79.02
68439;SHT31;55421;51.600;5.718;2022-11-14T08:15:57;5.48;79.01
68439;SHT31;55421;51.600;5.718;2022-11-14T08:18:25;5.56;78.93
68439;SHT31;55421;51.600;5.718;2022-11-14T08:20:51;5.62;78.96
68439;SHT31;55421;51.600;5.718;2022-11-14T08:23:18;5.66;78.91
68439;SHT31;55421;51.600;5.718;2022-11-14T08:25:44;5.71;78.90
68439;SHT31;55421;51.600;5.718;2022-11-14T08:28:11;5.77;78.91
68439;SHT31;55421;51.600;5.718;2022-11-14T08:30:37;5.85;78.98
68439;SHT31;55421;51.600;5.718;2022-11-14T08:33:04;5.91;79.06
68439;SHT31;55421;51.600;5.718;2022-11-14T08:35:32;5.99;79.16
68439;SHT31;55421;51.600;5.718;2022-11-14T08:37:59;6.06;79.11
68439;SHT31;55421;51.600;5.718;2022-11-14T08:40:28;6.11;79.08
68439;SHT31;55421;51.600;5.718;2022-11-14T08:42:58;6.18;79.03
68439;SHT31;55421;51.600;5.718;2022-11-14T08:45:27;6.25;79.03
68439;SHT31;55421;51.600;5.718;2022-11-14T08:47:55;6.32;79.00
68439;SHT31;55421;51.600;5.718;2022-11-14T08:50:22;6.38;79.00
68439;SHT31;55421;51.600;5.718;2022-11-14T08:52:49;6.44;78.94
68439;SHT31;55421;51.600;5.718;2022-11-14T08:55:17;6.49;78.90
68439;SHT31;55421;51.600;5.718;2022-11-14T08:57:45;6.57;78.90
68439;SHT31;55421;51.600;5.718;2022-11-14T09:00:13;6.65;78.90
68439;SHT31;55421;51.600;5.718;2022-11-14T09:02:40;6.71;78.87
68439;SHT31;55421;51.600;5.718;2022-11-14T09:05:07;6.79;78.81
68439;SHT31;55421;51.600;5.718;2022-11-14T09:07:34;6.83;78.75
68439;SHT31;55421;51.600;5.718;2022-11-14T09:10:00;6.89;78.70
68439;SHT31;55421;51.600;5.718;2022-11-14T09:12:27;6.94;78.60
68439;SHT31;55421;51.600;5.718;2022-11-14T09:14:53;7.01;78.60
68439;SHT31;55421;51.600;5.718;2022-11-14T09:17:20;7.06;78.60
68439;SHT31;55421;51.600;5.718;2022-11-14T09:19:46;7.12;78.57
68439;SHT31;55421;51.600;5.718;2022-11-14T09:22:13;7.18;78.53
68439;SHT31;55421;51.600;5.718;2022-11-14T09:24:39;7.24;78.52
68439;SHT31;55421;51.600;5.718;2022-11-14T09:27:06;7.34;78.50
68439;SHT31;55421;51.600;5.718;2022-11-14T09:29:32;7.43;78.49
68439;SHT31;55421;51.600;5.718;2022-11-14T09:31:59;7.49;78.40
68439;SHT31;55421;51.600;5.718;2022-11-14T09:34:25;7.55;78.37
68439;SHT31;55421;51.600;5.718;2022-11-14T09:36:52;7.60;78.34
68439;SHT31;55421;51.600;5.718;2022-11-14T09:39:18;7.66;78.23
68439;SHT31;55421;51.600;5.718;2022-11-14T09:41:54;7.72;78.21
68439;SHT31;55421;51.600;5.718;2022-11-14T09:44:55;7.78;78.05
68439;SHT31;55421;51.600;5.718;2022-11-14T09:50:13;7.86;78.00
68439;SHT31;55421;51.600;5.718;2022-11-14T09:52:48;7.91;78.05
68439;SHT31;55421;51.600;5.718;2022-11-14T09:55:27;8.00;78.20
68439;SHT31;55421;51.600;5.718;2022-11-14T09:57:57;8.09;78.20
68439;SHT31;55421;51.600;5.718;2022-11-14T10:01:01;8.15;78.12
68439;SHT31;55421;51.600;5.718;2022-11-14T10:03:43;8.21;78.04
68439;SHT31;55421;51.600;5.718;2022-11-14T10:06:32;8.25;78.00
68439;SHT31;55421;51.600;5.718;2022-11-14T10:15:51;8.50;77.98
68439;SHT31;55421;51.600;5.718;2022-11-14T10:27:59;8.83;77.93
68439;SHT31;55421;51.600;5.718;2022-11-14T10:30:18;8.92;77.76
68439;SHT31;55421;51.600;5.718;2022-11-14T10:35:44;8.98;77.53
68439;SHT31;55421;51.600;5.718;2022-11-14T10:41:01;9.02;77.66
68439;SHT31;55421;51.600;5.718;2022-11-14T10:46:19;9.15;77.43
68439;SHT31;55421;51.600;5.718;2022-11-14T10:49:11;9.19;77.37
68439;SHT31;55421;51.600;5.718;2022-11-14T10:51:54;9.19;77.16
68439;SHT31;55421;51.600;5.718;2022-11-14T10:54:35;9.12;76.98
68439;SHT31;55421;51.600;5.718;2022-11-14T10:57:13;9.06;77.08
68439;SHT31;55421;51.600;5.718;2022-11-14T10:59:46;9.06;77.23
68439;SHT31;55421;51.600;5.718;2022-11-14T11:02:13;9.08;77.26
68439;SHT31;55421;51.600;5.718;2022-11-14T11:04:41;9.07;77.20
68439;SHT31;55421;51.600;5.718;2022-11-14T11:09:59;9.02;77.38
68439;SHT31;55421;51.600;5.718;2022-11-14T11:12:47;8.97;77.42
68439;SHT31;55421;51.600;5.718;2022-11-14T11:18:00;8.94;77.42
68439;SHT31;55421;51.600;5.718;2022-11-14T11:21:00;8.90;77.47
68439;SHT31;55421;51.600;5.718;2022-11-14T11:23:33;8.86;77.58
68439;SHT31;55421;51.600;5.718;2022-11-14T11:26:03;8.80;77.61
68439;SHT31;55421;51.600;5.718;2022-11-14T11:29:00;8.74;77.63
68439;SHT31;55421;51.600;5.718;2022-11-14T11:34:12;8.68;77.93
68439;SHT31;55421;51.600;5.718;2022-11-14T11:36:39;8.65;78.02
68439;SHT31;55421;51.600;5.718;2022-11-14T11:39:25;8.62;78.18
68439;SHT31;55421;51.600;5.718;2022-11-14T11:41:57;8.60;78.36
68439;SHT31;55421;51.600;5.718;2022-11-14T11:44:36;8.61;78.38
68439;SHT31;55421;51.600;5.718;2022-11-14T11:47:14;8.61;78.30
68439;SHT31;55421;51.600;5.718;2022-11-14T11:52:17;8.60;78.36
68439;SHT31;55421;51.600;5.718;2022-11-14T12:00:52;8.61;78.56
68439;SHT31;55421;51.600;5.718;2022-11-14T12:03:23;8.62;78.50
68439;SHT31;55421;51.600;5.718;2022-11-14T12:11:33;8.57;78.46
68439;SHT31;55421;51.600;5.718;2022-11-14T12:29:26;8.61;78.59
68439;SHT31;55421;51.600;5.718;2022-11-14T12:32:32;8.65;78.46
68439;SHT31;55421;51.600;5.718;2022-11-14T12:35:16;8.67;78.48
68439;SHT31;55421;51.600;5.718;2022-11-14T12:38:05;8.70;78.50
68439;SHT31;55421;51.600;5.718;2022-11-14T12:40:41;8.73;78.52
68439;SHT31;55421;51.600;5.718;2022-11-14T12:43:29;8.75;78.51
68439;SHT31;55421;51.600;5.718;2022-11-14T12:46:01;8.80;78.60
68439;SHT31;55421;51.600;5.718;2022-11-14T12:48:37;8.84;78.52
68439;SHT31;55421;51.600;5.718;2022-11-14T12:53:50;8.97;78.31
68439;SHT31;55421;51.600;5.718;2022-11-14T12:56:20;9.00;78.12
68439;SHT31;55421;51.600;5.718;2022-11-14T12:59:15;9.03;78.09
68439;SHT31;55421;51.600;5.718;2022-11-14T13:01:53;9.05;78.00
68439;SHT31;55421;51.600;5.718;2022-11-14T13:10:54;9.11;77.70
68439;SHT31;55421;51.600;5.718;2022-11-14T13:13:21;9.11;77.60
68439;SHT31;55421;51.600;5.718;2022-11-14T13:16:20;9.11;77.60
68439;SHT31;55421;51.600;5.718;2022-11-14T13:27:23;9.14;77.50
68439;SHT31;55421;51.600;5.718;2022-11-14T13:29:54;9.15;77.48
68439;SHT31;55421;51.600;5.718;2022-11-14T13:35:12;9.24;77.34
68439;SHT31;55421;51.600;5.718;2022-11-14T13:40:40;9.26;77.30
68439;SHT31;55421;51.600;5.718;2022-11-14T13:43:21;9.27;77.25
68439;SHT31;55421;51.600;5.718;2022-11-14T13:52:24;9.35;77.20
68439;SHT31;55421;51.600;5.718;2022-11-14T13:54:57;9.38;77.14
68439;SHT31;55421;51.600;5.718;2022-11-14T13:57:40;9.39;77.10
68439;SHT31;55421;51.600;5.718;2022-11-14T14:00:28;9.40;76.95
68439;SHT31;55421;51.600;5.718;2022-11-14T14:06:50;9.35;76.90
68439;SHT31;55421;51.600;5.718;2022-11-14T14:09:24;9.34;76.80
68439;SHT31;55421;51.600;5.718;2022-11-14T14:12:24;9.33;76.70
68439;SHT31;55421;51.600;5.718;2022-11-14T14:15:11;9.30;76.73
68439;SHT31;55421;51.600;5.718;2022-11-14T14:21:02;9.19;76.81
68439;SHT31;55421;51.600;5.718;2022-11-14T14:27:16;9.19;76.98
68439;SHT31;55421;51.600;5.718;2022-11-14T14:29:57;9.21;76.98
68439;SHT31;55421;51.600;5.718;2022-11-14T14:32:34;9.22;77.00
68439;SHT31;55421;51.600;5.718;2022-11-14T14:37:50;9.23;76.90
68439;SHT31;55421;51.600;5.718;2022-11-14T14:42:56;9.21;76.94
68439;SHT31;55421;51.600;5.718;2022-11-14T14:45:23;9.22;76.92
68439;SHT31;55421;51.600;5.718;2022-11-14T14:48:00;9.23;76.89
68439;SHT31;55421;51.600;5.718;2022-11-14T14:50:38;9.25;76.90
68439;SHT31;55421;51.600;5.718;2022-11-14T14:53:17;9.25;76.90
68439;SHT31;55421;51.600;5.718;2022-11-14T14:55:59;9.23;76.81
68439;SHT31;55421;51.600;5.718;2022-11-14T14:58:42;9.20;76.88
68439;SHT31;55421;51.600;5.718;2022-11-14T15:01:11;9.17;76.93
68439;SHT31;55421;51.600;5.718;2022-11-14T15:03:45;9.15;77.00
68439;SHT31;55421;51.600;5.718;2022-11-14T15:06:26;9.14;76.92
68439;SHT31;55421;51.600;5.718;2022-11-14T15:08:56;9.15;76.82
68439;SHT31;55421;51.600;5.718;2022-11-14T15:11:26;9.15;76.80
68439;SHT31;55421;51.600;5.718;2022-11-14T15:13:54;9.15;76.85
68439;SHT31;55421;51.600;5.718;2022-11-14T15:16:24;9.14;76.88
68439;SHT31;55421;51.600;5.718;2022-11-14T15:18:52;9.13;76.84
68439;SHT31;55421;51.600;5.718;2022-11-14T15:21:24;9.13;76.80
68439;SHT31;55421;51.600;5.718;2022-11-14T15:23:58;9.12;76.68
68439;SHT31;55421;51.600;5.718;2022-11-14T15:26:41;9.12;76.71
68439;SHT31;55421;51.600;5.718;2022-11-14T15:31:54;9.10;76.84
68439;SHT31;55421;51.600;5.718;2022-11-14T15:39:38;8.98;76.78
68439;SHT31;55421;51.600;5.718;2022-11-14T15:44:54;8.86;76.82
68439;SHT31;55421;51.600;5.718;2022-11-14T15:47:28;8.79;76.92
68439;SHT31;55421;51.600;5.718;2022-11-14T15:50:21;8.73;77.02
68439;SHT31;55421;51.600;5.718;2022-11-14T15:53:02;8.65;77.15
68439;SHT31;55421;51.600;5.718;2022-11-14T15:55:32;8.59;77.26
68439;SHT31;55421;51.600;5.718;2022-11-14T15:57:58;8.56;77.37
68439;SHT31;55421;51.600;5.718;2022-11-14T16:00:25;8.54;77.47
68439;SHT31;55421;51.600;5.718;2022-11-14T16:02:52;8.52;77.58
68439;SHT31;55421;51.600;5.718;2022-11-14T16:05:28;8.50;77.62
68439;SHT31;55421;51.600;5.718;2022-11-14T16:07:56;8.49;77.74
68439;SHT31;55421;51.600;5.718;2022-11-14T16:10:24;8.47;77.80
68439;SHT31;55421;51.600;5.718;2022-11-14T16:12:53;8.45;77.86
68439;SHT31;55421;51.600;5.718;2022-11-14T16:15:20;8.44;77.91
68439;SHT31;55421;51.600;5.718;2022-11-14T16:17:48;8.43;77.99
68439;SHT31;55421;51.600;5.718;2022-11-14T16:20:19;8.45;78.00
68439;SHT31;55421;51.600;5.718;2022-11-14T16:22:51;8.47;78.06
68439;SHT31;55421;51.600;5.718;2022-11-14T16:25:19;8.50;78.03
68439;SHT31;55421;51.600;5.718;2022-11-14T16:27:49;8.53;78.00
68439;SHT31;55421;51.600;5.718;2022-11-14T16:30:16;8.54;78.00
68439;SHT31;55421;51.600;5.718;2022-11-14T16:32:46;8.55;77.99
68439;SHT31;55421;51.600;5.718;2022-11-14T16:35:18;8.54;77.98
68439;SHT31;55421;51.600;5.718;2022-11-14T16:37:48;8.53;78.00
68439;SHT31;55421;51.600;5.718;2022-11-14T16:42:48;8.54;77.95
68439;SHT31;55421;51.600;5.718;2022-11-14T16:45:15;8.55;77.90
68439;SHT31;55421;51.600;5.718;2022-11-14T16:47:45;8.54;77.91
68439;SHT31;55421;51.600;5.718;2022-11-14T16:50:13;8.52;77.90
68439;SHT31;55421;51.600;5.718;2022-11-14T16:52:42;8.52;77.94
68439;SHT31;55421;51.600;5.718;2022-11-14T16:55:09;8.51;77.99
68439;SHT31;55421;51.600;5.718;2022-11-14T16:57:37;8.49;78.00
68439;SHT31;55421;51.600;5.718;2022-11-14T17:00:07;8.50;78.01
68439;SHT31;55421;51.600;5.718;2022-11-14T17:02:39;8.53;78.01
68439;SHT31;55421;51.600;5.718;2022-11-14T17:05:06;8.57;78.03
68439;SHT31;55421;51.600;5.718;2022-11-14T17:07:33;8.61;78.01
68439;SHT31;55421;51.600;5.718;2022-11-14T17:09:59;8.65;78.00
68439;SHT31;55421;51.600;5.718;2022-11-14T17:12:26;8.66;77.98
68439;SHT31;55421;51.600;5.718;2022-11-14T17:14:53;8.65;77.93
68439;SHT31;55421;51.600;5.718;2022-11-14T17:17:20;8.64;77.99
68439;SHT31;55421;51.600;5.718;2022-11-14T17:19:47;8.63;77.99
68439;SHT31;55421;51.600;5.718;2022-11-14T17:22:14;8.63;78.00
68439;SHT31;55421;51.600;5.718;2022-11-14T17:24:43;8.63;78.00
68439;SHT31;55421;51.600;5.718;2022-11-14T17:27:10;8.63;78.04
68439;SHT31;55421;51.600;5.718;2022-11-14T17:29:38;8.60;78.08
68439;SHT31;55421;51.600;5.718;2022-11-14T17:32:04;8.58;78.10
68439;SHT31;55421;51.600;5.718;2022-11-14T17:34:31;8.56;78.14
68439;SHT31;55421;51.600;5.718;2022-11-14T17:36:58;8.52;78.20
68439;SHT31;55421;51.600;5.718;2022-11-14T17:39:24;8.51;78.23
68439;SHT31;55421;51.600;5.718;2022-11-14T17:41:51;8.51;78.20
68439;SHT31;55421;51.600;5.718;2022-11-14T17:44:18;8.50;78.20
68439;SHT31;55421;51.600;5.718;2022-11-14T17:46:45;8.50;78.22
68439;SHT31;55421;51.600;5.718;2022-11-14T17:49:12;8.49;78.21
68439;SHT31;55421;51.600;5.718;2022-11-14T17:51:39;8.48;78.21
68439;SHT31;55421;51.600;5.718;2022-11-14T17:54:05;8.44;78.11
68439;SHT31;55421;51.600;5.718;2022-11-14T17:56:32;8.38;78.01
68439;SHT31;55421;51.600;5.718;2022-11-14T17:58:58;8.30;78.00
68439;SHT31;55421;51.600;5.718;2022-11-14T18:01:25;8.20;78.00
68439;SHT31;55421;51.600;5.718;2022-11-14T18:03:51;8.11;78.09
68439;SHT31;55421;51.600;5.718;2022-11-14T18:06:19;8.05;78.11
68439;SHT31;55421;51.600;5.718;2022-11-14T18:08:46;8.01;78.17
68439;SHT31;55421;51.600;5.718;2022-11-14T18:11:14;7.97;78.30
68439;SHT31;55421;51.600;5.718;2022-11-14T18:13:42;7.95;78.39
68439;SHT31;55421;51.600;5.718;2022-11-14T18:16:10;7.90;78.35